createdAt,value
2023-05-10T00:02:11.508Z,31.54
2023-05-10T00:04:38.920Z,31.77
2023-05-10T00:07:05.695Z,31.56
2023-05-10T00:09:32.472Z,31.52
2023-05-10T00:11:59.828Z,31.44
2023-05-10T00:14:26.619Z,31.45
2023-05-10T00:16:53.536Z,31.36
2023-05-10T00:19:20.486Z,31.06
2023-05-10T00:21:47.501Z,31.00
2023-05-10T00:24:14.270Z,31.22
2023-05-10T00:26:41.782Z,31.39
2023-05-10T00:29:08.546Z,34.10
2023-05-10T00:31:35.557Z,34.61
2023-05-10T00:34:02.333Z,38.58
2023-05-10T00:36:29.151Z,35.01
2023-05-10T00:38:55.918Z,33.86
2023-05-10T00:41:22.687Z,33.13
2023-05-10T00:43:49.447Z,32.78
2023-05-10T00:46:16.255Z,32.36
2023-05-10T00:48:43.023Z,32.44
2023-05-10T00:51:09.819Z,32.16
2023-05-10T00:53:36.699Z,31.89
2023-05-10T00:56:04.446Z,31.64
2023-05-10T00:58:31.904Z,31.48
2023-05-10T01:00:58.665Z,31.40
2023-05-10T01:03:25.474Z,31.54
2023-05-10T01:05:52.376Z,31.53
2023-05-10T01:08:19.152Z,31.40
2023-05-10T01:10:46.371Z,31.30
2023-05-10T01:13:13.132Z,31.05
2023-05-10T01:15:39.924Z,31.24
2023-05-10T01:18:07.207Z,30.94
2023-05-10T01:20:33.997Z,32.26
2023-05-10T01:23:00.807Z,34.83
2023-05-10T01:25:27.545Z,37.73
2023-05-10T01:27:54.302Z,35.38
2023-05-10T01:30:22.361Z,33.77
2023-05-10T01:32:51.216Z,33.10
2023-05-10T01:35:17.999Z,32.80
2023-05-10T01:37:44.748Z,32.52
2023-05-10T01:40:11.563Z,31.93
2023-05-10T01:42:38.410Z,31.79
2023-05-10T01:45:05.146Z,31.72
2023-05-10T01:47:31.887Z,31.51
2023-05-10T01:49:58.767Z,31.62
2023-05-10T01:52:25.531Z,31.57
2023-05-10T01:54:52.385Z,31.32
2023-05-10T01:57:19.220Z,31.20
2023-05-10T01:59:45.966Z,31.05
2023-05-10T02:02:12.900Z,31.31
2023-05-10T02:04:39.868Z,31.41
2023-05-10T02:07:06.696Z,31.16
2023-05-10T02:09:33.455Z,31.20
2023-05-10T02:12:00.218Z,33.39
2023-05-10T02:14:27.302Z,36.71
2023-05-10T02:16:54.265Z,35.63
2023-05-10T02:19:21.052Z,33.65
2023-05-10T02:21:47.790Z,32.49
2023-05-10T02:24:14.860Z,32.02
2023-05-10T02:26:41.695Z,31.94
2023-05-10T02:29:08.442Z,31.66
2023-05-10T02:31:35.464Z,31.56
2023-05-10T02:34:02.337Z,31.52
2023-05-10T02:36:29.103Z,31.53
2023-05-10T02:38:55.866Z,31.50
2023-05-10T02:41:23.615Z,31.46
2023-05-10T02:43:50.389Z,31.42
2023-05-10T02:46:17.297Z,31.25
2023-05-10T02:48:44.092Z,31.20
2023-05-10T02:51:10.972Z,31.44
2023-05-10T02:53:37.740Z,35.79
2023-05-10T02:56:04.779Z,36.04
2023-05-10T02:58:31.632Z,34.40
2023-05-10T03:00:58.403Z,33.45
2023-05-10T03:03:25.210Z,32.41
2023-05-10T03:05:54.570Z,31.97
2023-05-10T03:08:21.338Z,31.72
2023-05-10T03:10:48.153Z,31.81
2023-05-10T03:13:15.134Z,31.49
2023-05-10T03:15:42.110Z,31.56
2023-05-10T03:18:08.999Z,31.50
2023-05-10T03:20:35.748Z,31.46
2023-05-10T03:23:02.498Z,31.19
2023-05-10T03:25:29.300Z,31.29
2023-05-10T03:27:56.162Z,30.97
2023-05-10T03:30:22.898Z,31.00
2023-05-10T03:32:49.728Z,33.79
2023-05-10T03:35:16.525Z,36.01
2023-05-10T03:37:43.352Z,35.41
2023-05-10T03:40:10.147Z,33.14
2023-05-10T03:42:36.942Z,32.52
2023-05-10T03:45:03.705Z,32.01
2023-05-10T03:47:30.759Z,31.99
2023-05-10T03:49:59.047Z,31.66
2023-05-10T03:52:26.186Z,31.62
2023-05-10T03:54:53.041Z,31.30
2023-05-10T03:57:19.841Z,31.25
2023-05-10T03:59:46.648Z,31.26
2023-05-10T04:02:13.459Z,31.36
2023-05-10T04:04:40.232Z,30.86
2023-05-10T04:07:06.994Z,31.24
2023-05-10T04:09:33.869Z,30.89
2023-05-10T04:12:03.190Z,33.48
2023-05-10T04:14:30.042Z,35.04
2023-05-10T04:16:56.862Z,38.65
2023-05-10T04:19:23.695Z,35.16
2023-05-10T04:21:50.474Z,33.47
2023-05-10T04:24:17.289Z,32.85
2023-05-10T04:26:44.043Z,32.30
2023-05-10T04:29:10.830Z,32.10
2023-05-10T04:31:37.724Z,32.04
2023-05-10T04:34:04.473Z,31.52
2023-05-10T04:36:31.208Z,31.54
2023-05-10T04:38:57.953Z,31.55
2023-05-10T04:41:25.725Z,31.73
2023-05-10T04:43:52.502Z,31.58
2023-05-10T04:46:19.365Z,31.40
2023-05-10T04:48:46.218Z,31.26
2023-05-10T04:51:13.146Z,31.20
2023-05-10T04:53:39.935Z,31.10
2023-05-10T04:56:06.693Z,31.17
2023-05-10T04:58:33.478Z,31.25
2023-05-10T05:01:00.384Z,31.02
2023-05-10T05:03:27.215Z,30.97
2023-05-10T05:05:54.005Z,31.84
2023-05-10T05:08:20.778Z,35.24
2023-05-10T05:10:48.072Z,35.93
2023-05-10T05:13:14.901Z,33.63
2023-05-10T05:15:41.758Z,32.36
2023-05-10T05:18:08.585Z,31.87
2023-05-10T05:20:35.500Z,31.72
2023-05-10T05:23:02.336Z,31.71
2023-05-10T05:25:29.098Z,31.29
2023-05-10T05:27:55.852Z,31.42
2023-05-10T05:30:22.620Z,31.20
2023-05-10T05:32:49.399Z,31.26
2023-05-10T05:35:16.301Z,31.28
2023-05-10T05:37:43.299Z,31.17
2023-05-10T05:40:10.081Z,31.17
2023-05-10T05:42:37.545Z,30.99
2023-05-10T05:45:04.386Z,31.88
2023-05-10T05:47:31.316Z,35.53
2023-05-10T05:49:58.060Z,35.50
2023-05-10T05:52:24.823Z,33.39
2023-05-10T05:54:51.687Z,32.61
2023-05-10T05:57:18.425Z,31.98
2023-05-10T05:59:45.362Z,31.82
2023-05-10T06:02:12.210Z,31.55
2023-05-10T06:04:39.060Z,31.25
2023-05-10T06:07:05.898Z,31.24
2023-05-10T06:09:32.710Z,31.12
2023-05-10T06:11:59.445Z,31.16
2023-05-10T06:14:26.378Z,30.98
2023-05-10T06:16:53.198Z,31.21
2023-05-10T06:19:20.022Z,30.95
2023-05-10T06:21:46.791Z,31.12
2023-05-10T06:24:13.634Z,31.54
2023-05-10T06:26:40.500Z,35.01
2023-05-10T06:29:07.370Z,35.31
2023-05-10T06:31:34.300Z,33.45
2023-05-10T06:34:01.270Z,32.47
2023-05-10T06:36:28.125Z,32.04
2023-05-10T06:38:54.996Z,31.83
2023-05-10T06:41:24.546Z,31.61
2023-05-10T06:43:51.706Z,31.32
2023-05-10T06:46:18.613Z,31.47
2023-05-10T06:48:45.591Z,31.12
2023-05-10T06:51:12.415Z,31.11
2023-05-10T06:53:39.153Z,31.20
2023-05-10T06:56:05.911Z,31.11
2023-05-10T06:58:33.597Z,31.03
2023-05-10T07:01:00.428Z,31.01
2023-05-10T07:03:27.263Z,34.97
2023-05-10T07:05:54.125Z,35.43
2023-05-10T07:08:20.871Z,33.71
2023-05-10T07:10:47.615Z,32.69
2023-05-10T07:13:14.479Z,31.87
2023-05-10T07:15:41.354Z,31.71
2023-05-10T07:18:08.319Z,31.80
2023-05-10T07:20:35.258Z,31.47
2023-05-10T07:23:02.096Z,31.58
2023-05-10T07:25:28.864Z,31.44
2023-05-10T07:27:55.650Z,31.26
2023-05-10T07:30:22.499Z,31.29
2023-05-10T07:32:49.329Z,31.25
2023-05-10T07:35:16.435Z,31.02
2023-05-10T07:37:43.538Z,32.66
2023-05-10T07:40:10.282Z,32.14
2023-05-10T07:42:37.200Z,31.38
2023-05-10T07:45:04.017Z,31.25
2023-05-10T07:47:31.083Z,30.88
2023-05-10T07:49:57.914Z,32.72
2023-05-10T07:52:24.726Z,35.78
2023-05-10T07:54:51.455Z,35.40
2023-05-10T07:57:18.575Z,33.36
2023-05-10T07:59:46.081Z,32.58
2023-05-10T08:02:12.894Z,31.95
2023-05-10T08:04:39.773Z,31.93
2023-05-10T08:07:06.578Z,31.73
2023-05-10T08:09:33.353Z,31.83
2023-05-10T08:12:03.362Z,31.63
2023-05-10T08:14:30.244Z,31.11
2023-05-10T08:16:57.122Z,31.38
2023-05-10T08:19:24.572Z,31.27
2023-05-10T08:21:51.805Z,31.00
2023-05-10T08:24:18.581Z,32.88
2023-05-10T08:26:45.338Z,31.89
2023-05-10T08:29:12.107Z,31.43
2023-05-10T08:31:38.860Z,31.27
2023-05-10T08:34:05.620Z,31.25
2023-05-10T08:36:32.968Z,34.15
2023-05-10T08:38:59.904Z,35.49
2023-05-10T08:41:27.049Z,35.03
2023-05-10T08:43:53.879Z,33.16
2023-05-10T08:46:20.701Z,32.49
2023-05-10T08:48:47.532Z,32.33
2023-05-10T08:51:14.261Z,32.20
2023-05-10T08:53:41.003Z,31.97
2023-05-10T08:56:07.787Z,31.91
2023-05-10T08:58:34.576Z,31.74
2023-05-10T09:01:01.440Z,31.69
2023-05-10T09:03:28.232Z,31.83
2023-05-10T09:05:56.700Z,31.86
2023-05-10T09:08:26.266Z,35.85
2023-05-10T09:10:53.020Z,36.27
2023-05-10T09:13:19.843Z,34.54
2023-05-10T09:15:46.606Z,33.54
2023-05-10T09:18:13.486Z,33.17
2023-05-10T09:20:40.328Z,32.81
2023-05-10T09:23:07.102Z,32.65
2023-05-10T09:25:38.017Z,32.44
2023-05-10T09:28:04.760Z,32.33
2023-05-10T09:30:31.539Z,32.21
2023-05-10T09:32:58.400Z,32.24
2023-05-10T09:35:28.739Z,33.32
2023-05-10T09:37:56.346Z,36.90
2023-05-10T09:40:23.199Z,36.38
2023-05-10T09:42:49.971Z,34.40
2023-05-10T09:45:16.856Z,33.54
2023-05-10T09:47:43.924Z,33.23
2023-05-10T09:50:11.043Z,32.76
2023-05-10T09:52:38.194Z,32.70
2023-05-10T09:55:05.276Z,32.71
2023-05-10T09:57:34.590Z,32.46
2023-05-10T10:00:02.008Z,32.34
2023-05-10T10:02:28.860Z,32.04
2023-05-10T10:04:55.795Z,32.13
2023-05-10T10:07:22.555Z,32.36
2023-05-10T10:09:49.327Z,36.39
2023-05-10T10:12:16.069Z,36.72
2023-05-10T10:14:42.809Z,35.33
2023-05-10T10:17:09.722Z,34.04
2023-05-10T10:19:36.949Z,33.28
2023-05-10T10:22:04.101Z,32.95
2023-05-10T10:24:31.007Z,32.80
2023-05-10T10:26:58.129Z,32.59
2023-05-10T10:29:24.898Z,32.57
2023-05-10T10:31:51.810Z,32.67
2023-05-10T10:34:18.633Z,32.48
2023-05-10T10:36:45.386Z,32.20
2023-05-10T10:39:12.314Z,32.14
2023-05-10T10:41:39.131Z,35.13
2023-05-10T10:44:05.957Z,36.81
2023-05-10T10:46:32.969Z,36.45
2023-05-10T10:48:59.799Z,34.19
2023-05-10T10:51:26.679Z,33.63
2023-05-10T10:53:53.472Z,33.50
2023-05-10T10:56:22.251Z,33.19
2023-05-10T10:58:49.028Z,33.32
2023-05-10T11:01:16.171Z,32.78
2023-05-10T11:03:42.940Z,33.04
2023-05-10T11:06:09.729Z,32.94
2023-05-10T11:08:38.213Z,34.55
2023-05-10T11:11:07.629Z,38.05
2023-05-10T11:13:34.507Z,38.22
2023-05-10T11:16:01.426Z,35.81
2023-05-10T11:18:28.239Z,34.77
2023-05-10T11:20:55.061Z,34.32
2023-05-10T11:23:22.251Z,34.18
2023-05-10T11:25:49.024Z,34.06
2023-05-10T11:28:15.796Z,33.79
2023-05-10T11:30:42.709Z,33.89
2023-05-10T11:33:09.654Z,33.29
2023-05-10T11:35:36.522Z,33.48
2023-05-10T11:38:03.470Z,33.29
2023-05-10T11:40:30.243Z,33.24
2023-05-10T11:42:57.003Z,37.35
2023-05-10T11:45:23.782Z,38.66
2023-05-10T11:47:50.951Z,36.68
2023-05-10T11:52:59.719Z,39.34
